createdAt,value
2022-08-05T00:01:20.828Z,17.71
2022-08-05T00:04:34.230Z,17.68
2022-08-05T00:07:59.787Z,17.57
2022-08-05T00:11:20.807Z,17.52
2022-08-05T00:14:37.431Z,17.50
2022-08-05T00:17:44.017Z,17.41
2022-08-05T00:20:54.355Z,17.39
2022-08-05T00:24:10.018Z,17.35
2022-08-05T00:27:17.599Z,17.34
2022-08-05T00:30:29.317Z,17.29
2022-08-05T00:34:54.217Z,17.24
2022-08-05T00:37:11.542Z,17.20
2022-08-05T00:40:27.018Z,17.17
2022-08-05T00:43:47.174Z,17.12
2022-08-05T00:47:01.891Z,17.10
2022-08-05T00:50:10.660Z,17.06
2022-08-05T00:53:45.121Z,17.03
2022-08-05T00:56:51.422Z,17.02
2022-08-05T00:59:57.718Z,16.94
2022-08-05T01:03:22.255Z,16.94
2022-08-05T01:06:32.567Z,16.90
2022-08-05T01:09:38.970Z,16.80
2022-08-05T01:13:00.431Z,16.71
2022-08-05T01:16:22.998Z,16.77
2022-08-05T01:20:00.935Z,16.69
2022-08-05T01:23:24.831Z,16.67
2022-08-05T01:27:17.875Z,16.65
2022-08-05T01:30:34.173Z,16.64
2022-08-05T01:33:53.478Z,16.56
2022-08-05T01:37:04.458Z,16.51
2022-08-05T01:40:11.450Z,16.51
2022-08-05T01:43:22.415Z,16.46
2022-08-05T01:46:42.467Z,16.45
2022-08-05T01:50:02.138Z,16.45
2022-08-05T01:53:14.204Z,16.43
2022-08-05T01:58:11.651Z,16.38
2022-08-05T02:00:12.420Z,16.30
2022-08-05T02:03:35.649Z,16.25
2022-08-05T02:06:42.135Z,16.21
2022-08-05T02:09:51.985Z,16.19
2022-08-05T02:13:15.923Z,16.15
2022-08-05T02:16:44.069Z,16.08
2022-08-05T02:19:55.402Z,16.03
2022-08-05T02:23:10.227Z,16.03
2022-08-05T02:26:22.233Z,16.00
2022-08-05T02:29:59.914Z,15.94
2022-08-05T02:32:57.668Z,15.87
2022-08-05T02:36:04.833Z,15.84
2022-08-05T02:39:11.636Z,15.83
2022-08-05T02:42:25.667Z,15.82
2022-08-05T02:45:51.866Z,15.80
2022-08-05T02:49:03.631Z,15.75
2022-08-05T02:52:29.692Z,15.74
2022-08-05T02:55:54.470Z,15.71
2022-08-05T02:59:05.855Z,15.69
2022-08-05T03:02:13.614Z,15.67
2022-08-05T03:05:21.887Z,15.61
2022-08-05T03:08:48.945Z,15.59
2022-08-05T03:11:58.468Z,15.51
2022-08-05T03:15:07.083Z,15.45
2022-08-05T03:18:17.317Z,15.37
2022-08-05T03:21:23.239Z,15.41
2022-08-05T03:24:35.018Z,15.40
2022-08-05T03:27:59.401Z,15.37
2022-08-05T03:31:07.315Z,15.29
2022-08-05T03:34:13.239Z,15.30
2022-08-05T03:37:21.778Z,15.25
2022-08-05T03:40:32.364Z,15.23
2022-08-05T03:44:10.016Z,15.24
2022-08-05T03:47:06.577Z,15.23
2022-08-05T03:50:12.676Z,15.25
2022-08-05T03:55:49.776Z,15.29
2022-08-05T03:57:16.130Z,15.25
2022-08-05T04:00:27.362Z,15.26
2022-08-05T04:03:38.652Z,15.27
2022-08-05T04:06:48.027Z,15.37
2022-08-05T04:09:57.914Z,15.40
2022-08-05T04:13:09.202Z,15.47
2022-08-05T04:16:15.411Z,15.54
2022-08-05T04:19:31.152Z,15.57
2022-08-05T04:22:36.833Z,15.67
2022-08-05T04:26:00.290Z,15.78
2022-08-05T04:29:08.427Z,15.88
2022-08-05T04:32:20.003Z,15.97
2022-08-05T04:36:16.831Z,16.06
2022-08-05T04:39:07.650Z,16.17
2022-08-05T04:42:13.690Z,16.30
2022-08-05T04:45:31.018Z,16.45
2022-08-05T04:48:47.288Z,16.57
2022-08-05T04:52:00.544Z,16.75
2022-08-05T04:55:14.883Z,16.91
2022-08-05T04:58:21.681Z,17.14
2022-08-05T05:02:08.117Z,17.39
2022-08-05T05:05:02.753Z,17.66
2022-08-05T05:08:14.472Z,17.90
2022-08-05T05:11:41.629Z,18.19
2022-08-05T05:15:04.111Z,18.55
2022-08-05T05:18:12.375Z,18.77
2022-08-05T05:21:19.482Z,19.05
2022-08-05T05:24:57.012Z,19.34
2022-08-05T05:28:12.196Z,19.67
2022-08-05T05:31:19.274Z,19.91
2022-08-05T05:34:29.355Z,20.20
2022-08-05T05:37:59.029Z,20.48
2022-08-05T05:41:07.619Z,20.80
2022-08-05T05:44:35.806Z,21.12
2022-08-05T05:48:07.028Z,21.34
2022-08-05T05:51:15.758Z,21.67
2022-08-05T05:54:49.968Z,21.87
2022-08-05T05:57:53.242Z,22.09
2022-08-05T06:01:12.384Z,22.54
2022-08-05T06:04:22.413Z,22.62
2022-08-05T06:07:41.730Z,22.79
2022-08-05T06:10:52.892Z,23.18
2022-08-05T06:14:00.379Z,23.34
2022-08-05T06:17:22.597Z,23.58
2022-08-05T06:20:32.238Z,23.91
2022-08-05T06:23:44.034Z,24.09
2022-08-05T06:26:53.535Z,24.33
2022-08-05T06:30:17.863Z,24.47
2022-08-05T06:33:52.251Z,24.53
2022-08-05T06:36:58.128Z,24.73
2022-08-05T06:40:05.710Z,25.09
2022-08-05T06:43:57.957Z,25.33
2022-08-05T06:46:42.536Z,25.49
2022-08-05T06:50:00.591Z,25.68
2022-08-05T06:53:19.573Z,25.86
2022-08-05T06:56:34.871Z,26.04
2022-08-05T06:59:48.504Z,26.20
2022-08-05T07:03:05.097Z,26.46
2022-08-05T07:06:20.686Z,26.55
2022-08-05T07:09:32.431Z,26.74
2022-08-05T07:13:02.970Z,27.01
2022-08-05T07:18:01.493Z,27.21
2022-08-05T07:20:32.959Z,27.40
2022-08-05T07:23:40.603Z,27.67
2022-08-05T07:27:00.490Z,27.81
2022-08-05T07:30:27.578Z,27.95
2022-08-05T07:33:40.953Z,28.17
2022-08-05T07:36:47.402Z,28.48
2022-08-05T07:40:04.680Z,28.61
2022-08-05T07:43:24.642Z,28.65
2022-08-05T07:46:33.656Z,29.09
2022-08-05T07:49:54.669Z,29.31
2022-08-05T07:53:06.532Z,29.53
2022-08-05T07:57:02.642Z,29.60
2022-08-05T07:59:46.975Z,29.58
2022-08-05T08:03:15.233Z,29.90
2022-08-05T08:06:28.174Z,30.16
2022-08-05T08:09:34.863Z,30.44
2022-08-05T08:12:49.440Z,30.59
2022-08-05T08:16:50.519Z,30.67
2022-08-05T08:20:23.382Z,31.05
2022-08-05T08:23:00.091Z,31.12
2022-08-05T08:26:10.615Z,31.43
2022-08-05T08:29:45.585Z,31.68
2022-08-05T08:32:47.237Z,31.82
2022-08-05T08:36:18.526Z,32.01
2022-08-05T08:39:26.582Z,32.33
2022-08-05T08:42:50.423Z,32.23
2022-08-05T08:46:02.916Z,32.34
2022-08-05T08:50:07.834Z,32.41
2022-08-05T08:52:39.757Z,32.48
2022-08-05T08:56:04.357Z,32.69
2022-08-05T08:59:19.506Z,33.06
2022-08-05T09:02:27.186Z,33.42
2022-08-05T09:05:38.269Z,33.67
2022-08-05T09:09:04.694Z,33.83
2022-08-05T09:12:20.816Z,33.85
2022-08-05T09:15:37.028Z,33.44
2022-08-05T09:18:50.047Z,33.60
2022-08-05T09:22:28.721Z,33.82
2022-08-05T09:25:59.886Z,33.93
2022-08-05T09:29:06.596Z,34.39
2022-08-05T09:32:40.727Z,34.11
2022-08-05T09:36:11.758Z,34.44
2022-08-05T09:39:39.306Z,34.02
2022-08-05T09:42:54.198Z,34.37
2022-08-05T09:46:35.200Z,34.24
2022-08-05T09:50:00.951Z,34.70
2022-08-05T09:53:13.029Z,35.32
2022-08-05T09:56:31.932Z,35.05
2022-08-05T09:59:39.089Z,35.17
2022-08-05T10:02:51.134Z,35.33
2022-08-05T10:06:16.083Z,35.46
2022-08-05T10:09:27.428Z,35.53
2022-08-05T10:12:49.160Z,35.93
2022-08-05T10:15:58.861Z,35.47
2022-08-05T10:19:09.303Z,35.36
2022-08-05T10:22:29.965Z,36.44
2022-08-05T10:25:45.659Z,36.18
2022-08-05T10:28:51.534Z,36.26
2022-08-05T10:32:54.813Z,36.55
2022-08-05T10:35:33.754Z,35.92
2022-08-05T10:38:58.485Z,36.40
2022-08-05T10:42:14.120Z,36.41
2022-08-05T10:45:42.137Z,36.74
2022-08-05T10:49:09.804Z,36.20
2022-08-05T10:52:58.976Z,36.25
2022-08-05T10:56:21.090Z,36.93
2022-08-05T11:00:02.606Z,37.37
2022-08-05T11:03:24.811Z,36.26
2022-08-05T11:07:11.919Z,37.02
2022-08-05T11:10:31.027Z,36.74
2022-08-05T11:13:57.778Z,37.06
2022-08-05T11:17:59.891Z,37.45
2022-08-05T11:20:59.824Z,37.71
2022-08-05T11:24:30.730Z,38.70
2022-08-05T11:27:50.991Z,38.64
2022-08-05T11:31:19.543Z,38.10
2022-08-05T11:34:50.944Z,38.09
2022-08-05T11:38:30.851Z,38.50
2022-08-05T11:41:54.842Z,39.07
2022-08-05T11:45:05.360Z,38.10
2022-08-05T11:48:12.062Z,38.40
2022-08-05T11:51:43.987Z,39.76
2022-08-05T11:54:54.733Z,38.98
2022-08-05T11:58:10.223Z,39.17
2022-08-05T12:01:41.537Z,39.51
2022-08-05T12:04:59.540Z,40.13
2022-08-05T12:08:11.731Z,40.17
2022-08-05T12:11:40.280Z,39.84
2022-08-05T12:14:49.646Z,39.28
2022-08-05T12:18:02.588Z,39.16
2022-08-05T12:21:17.499Z,38.78
2022-08-05T12:24:24.661Z,40.12
2022-08-05T12:27:34.737Z,39.55
2022-08-05T12:31:07.676Z,39.20
2022-08-05T12:34:25.942Z,40.36
2022-08-05T12:37:33.876Z,39.53
2022-08-05T12:40:44.199Z,40.09
2022-08-05T12:44:00.935Z,39.93
2022-08-05T12:47:12.418Z,39.76
2022-08-05T12:50:20.078Z,39.85
2022-08-05T12:53:38.770Z,40.21
2022-08-05T12:57:09.287Z,40.10
2022-08-05T13:02:00.325Z,40.61
2022-08-05T13:03:53.958Z,41.20
2022-08-05T13:07:02.801Z,40.54
2022-08-05T13:10:19.665Z,40.09
2022-08-05T13:14:05.965Z,40.05
2022-08-05T13:17:41.666Z,39.67
2022-08-05T13:20:52.312Z,40.82
2022-08-05T13:23:59.431Z,41.11
2022-08-05T13:27:05.669Z,41.03
2022-08-05T13:30:34.220Z,40.03
2022-08-05T13:34:21.465Z,40.65
2022-08-05T13:37:27.171Z,40.36
2022-08-05T13:40:51.608Z,40.17
2022-08-05T13:44:02.047Z,40.84
2022-08-05T13:47:09.348Z,40.94
2022-08-05T13:50:16.994Z,41.39
2022-08-05T13:53:24.194Z,40.77
2022-08-05T13:56:50.445Z,42.36
2022-08-05T14:00:02.128Z,42.24
2022-08-05T14:03:12.530Z,41.28
2022-08-05T14:06:38.943Z,40.96
2022-08-05T14:09:55.438Z,41.79
2022-08-05T14:13:02.070Z,41.56
2022-08-05T14:16:11.318Z,42.09
2022-08-05T14:19:19.671Z,39.81
2022-08-05T14:22:30.339Z,41.78
2022-08-05T14:25:46.216Z,41.85
2022-08-05T14:28:53.549Z,40.94
2022-08-05T14:32:12.365Z,40.44
2022-08-05T14:35:36.988Z,41.79
2022-08-05T14:38:53.616Z,42.33
2022-08-05T14:42:20.787Z,42.76
2022-08-05T14:45:31.684Z,41.78
2022-08-05T14:48:38.597Z,41.55
2022-08-05T14:51:45.978Z,40.93
2022-08-05T14:54:54.198Z,42.00
2022-08-05T14:58:01.038Z,42.37
2022-08-05T15:01:47.298Z,42.37
2022-08-05T15:04:52.117Z,41.16
2022-08-05T15:08:10.676Z,41.29
2022-08-05T15:11:20.712Z,41.50
2022-08-05T15:14:50.676Z,41.89
2022-08-05T15:17:57.650Z,41.79
2022-08-05T15:21:11.296Z,41.60
2022-08-05T15:24:19.237Z,41.56
2022-08-05T15:27:32.022Z,42.43
2022-08-05T15:30:45.757Z,42.08
2022-08-05T15:34:18.957Z,42.16
2022-08-05T15:38:34.272Z,41.70
2022-08-05T15:41:04.466Z,42.08
2022-08-05T15:44:23.878Z,41.12
2022-08-05T15:47:57.537Z,41.57
2022-08-05T15:51:06.496Z,41.20
2022-08-05T15:54:15.273Z,41.61
2022-08-05T15:57:23.553Z,41.77
2022-08-05T16:00:51.037Z,41.36
2022-08-05T16:03:58.570Z,41.49
2022-08-05T16:07:10.988Z,40.70
2022-08-05T16:10:23.090Z,40.23
2022-08-05T16:13:35.091Z,39.01
2022-08-05T16:16:44.376Z,38.31
2022-08-05T16:20:05.296Z,37.94
2022-08-05T16:23:18.501Z,37.66
2022-08-05T16:26:27.839Z,37.05
2022-08-05T16:29:37.127Z,36.97
2022-08-05T16:32:46.777Z,36.88
2022-08-05T16:35:56.216Z,36.33
2022-08-05T16:39:04.546Z,36.06
2022-08-05T16:42:27.859Z,35.71
2022-08-05T16:46:07.236Z,35.55
2022-08-05T16:49:07.036Z,35.21
2022-08-05T16:52:14.258Z,34.94
2022-08-05T16:55:21.778Z,34.51
2022-08-05T16:58:32.997Z,34.52
2022-08-05T17:01:54.541Z,34.36
2022-08-05T17:05:05.555Z,34.11
2022-08-05T17:08:15.875Z,33.80
2022-08-05T17:11:48.710Z,33.47
2022-08-05T17:15:01.141Z,33.11
2022-08-05T17:18:10.556Z,32.77
2022-08-05T17:21:26.099Z,32.50
2022-08-05T17:24:56.754Z,32.27
2022-08-05T17:28:06.393Z,31.91
2022-08-05T17:31:24.140Z,31.65
2022-08-05T17:34:44.405Z,31.35
2022-08-05T17:37:53.397Z,31.10
2022-08-05T17:41:22.781Z,30.84
2022-08-05T17:44:39.637Z,30.65
2022-08-05T17:47:58.159Z,30.37
2022-08-05T17:51:08.993Z,30.14
2022-08-05T17:54:15.445Z,29.89
2022-08-05T17:57:29.538Z,29.69
2022-08-05T18:00:40.761Z,29.47
2022-08-05T18:04:03.765Z,29.21
2022-08-05T18:07:12.554Z,28.99
2022-08-05T18:10:26.099Z,28.77
2022-08-05T18:13:36.891Z,28.57
2022-08-05T18:16:54.098Z,28.36
2022-08-05T18:20:04.038Z,28.16
2022-08-05T18:23:12.436Z,27.95
2022-08-05T18:26:19.059Z,27.82
2022-08-05T18:29:40.293Z,27.67
2022-08-05T18:32:53.611Z,27.43
2022-08-05T18:36:19.050Z,27.28
2022-08-05T18:40:30.885Z,27.04
2022-08-05T18:42:59.033Z,26.90
2022-08-05T18:46:09.789Z,26.71
2022-08-05T18:49:44.537Z,26.58
2022-08-05T18:53:15.058Z,26.42
2022-08-05T18:56:35.615Z,26.27
2022-08-05T19:00:03.011Z,26.11
2022-08-05T19:03:11.051Z,26.02
2022-08-05T19:06:21.931Z,25.87
2022-08-05T19:09:44.753Z,25.72
2022-08-05T19:12:52.577Z,25.55
2022-08-05T19:16:03.786Z,25.47
2022-08-05T19:19:10.409Z,25.36
2022-08-05T19:22:27.545Z,25.27
2022-08-05T19:25:43.371Z,25.20
2022-08-05T19:28:50.525Z,25.07
2022-08-05T19:31:57.513Z,24.98
2022-08-05T19:35:06.377Z,24.84
2022-08-05T19:38:13.179Z,24.75
2022-08-05T19:41:22.159Z,24.65
2022-08-05T19:44:51.376Z,24.54
2022-08-05T19:47:57.617Z,24.45
2022-08-05T19:51:04.182Z,24.31
2022-08-05T19:54:21.648Z,24.22
2022-08-05T19:57:49.285Z,24.10
2022-08-05T20:01:05.386Z,23.98
2022-08-05T20:04:12.593Z,23.88
2022-08-05T20:07:46.514Z,23.82
2022-08-05T20:10:49.807Z,23.76
2022-08-05T20:13:58.924Z,23.66
2022-08-05T20:17:23.423Z,23.63
2022-08-05T20:20:30.147Z,23.49
2022-08-05T20:23:51.370Z,23.42
2022-08-05T20:27:00.803Z,23.38
2022-08-05T20:30:10.518Z,23.30
2022-08-05T20:33:17.396Z,23.21
2022-08-05T20:36:28.957Z,23.12
2022-08-05T20:39:35.674Z,23.06
2022-08-05T20:42:43.574Z,23.05
2022-08-05T20:45:56.900Z,23.01
2022-08-05T20:49:08.194Z,22.92
2022-08-05T20:52:14.627Z,22.79
2022-08-05T20:56:07.301Z,22.76
2022-08-05T20:58:48.821Z,22.73
2022-08-05T21:01:58.589Z,22.67
2022-08-05T21:05:06.489Z,22.66
2022-08-05T21:08:15.558Z,22.61
2022-08-05T21:12:09.643Z,22.58
2022-08-05T21:14:50.851Z,22.53
2022-08-05T21:17:57.494Z,22.49
2022-08-05T21:21:04.053Z,22.38
2022-08-05T21:24:12.884Z,22.24
2022-08-05T21:27:20.618Z,22.20
2022-08-05T21:30:32.716Z,22.21
2022-08-05T21:33:40.157Z,22.16
2022-08-05T21:36:46.659Z,22.14
2022-08-05T21:39:55.327Z,22.14
2022-08-05T21:43:01.502Z,22.05
2022-08-05T21:46:12.087Z,22.00
2022-08-05T21:49:48.023Z,21.96
2022-08-05T21:52:48.545Z,21.85
2022-08-05T21:56:05.598Z,21.88
2022-08-05T21:59:24.392Z,21.76
2022-08-05T22:02:32.598Z,21.71
2022-08-05T22:05:49.043Z,21.67
2022-08-05T22:08:55.838Z,21.65
2022-08-05T22:12:03.508Z,21.59
2022-08-05T22:16:00.529Z,21.51
2022-08-05T22:18:49.171Z,21.47
2022-08-05T22:21:55.624Z,21.43
2022-08-05T22:25:27.845Z,21.35
2022-08-05T22:28:54.253Z,21.30
2022-08-05T22:32:03.328Z,21.24
2022-08-05T22:35:10.074Z,21.24
2022-08-05T22:38:16.353Z,21.20
2022-08-05T22:42:04.807Z,21.15
2022-08-05T22:44:56.401Z,21.11
2022-08-05T22:48:03.018Z,21.04
2022-08-05T22:51:22.499Z,20.90
2022-08-05T22:54:30.146Z,20.85
2022-08-05T22:57:36.928Z,20.85
2022-08-05T23:00:42.797Z,20.81
2022-08-05T23:03:57.906Z,20.82
2022-08-05T23:07:07.001Z,20.80
2022-08-05T23:10:13.589Z,20.74
2022-08-05T23:13:19.981Z,20.70
2022-08-05T23:16:53.567Z,20.65
2022-08-05T23:20:00.859Z,20.54
2022-08-05T23:23:08.951Z,20.47
2022-08-05T23:26:15.077Z,20.49
2022-08-05T23:29:21.568Z,20.48
2022-08-05T23:32:28.192Z,20.37
2022-08-05T23:35:34.767Z,20.38
2022-08-05T23:38:41.088Z,20.29
2022-08-05T23:41:51.326Z,20.25
2022-08-05T23:44:58.131Z,20.24
2022-08-05T23:48:05.971Z,20.22
2022-08-05T23:51:15.295Z,20.15
2022-08-05T23:54:30.341Z,20.10
2022-08-05T23:57:40.704Z,20.09
